createdAt,value
2023-03-26T00:02:25.754Z,99.90
2023-03-26T00:04:57.583Z,99.90
2023-03-26T00:07:29.628Z,99.90
2023-03-26T00:10:01.374Z,99.90
2023-03-26T00:12:33.194Z,99.90
2023-03-26T00:15:05.496Z,99.90
2023-03-26T00:17:37.457Z,99.90
2023-03-26T00:20:09.369Z,99.90
2023-03-26T00:22:41.735Z,99.90
2023-03-26T00:25:14.814Z,99.90
2023-03-26T00:27:46.684Z,99.90
2023-03-26T00:30:18.531Z,99.90
2023-03-26T00:32:53.703Z,99.90
2023-03-26T00:35:25.891Z,99.90
2023-03-26T00:37:58.507Z,99.90
2023-03-26T00:40:32.143Z,99.90
2023-03-26T00:43:10.276Z,99.90
2023-03-26T00:45:42.065Z,99.90
2023-03-26T00:48:14.420Z,99.90
2023-03-26T00:50:49.267Z,99.90
2023-03-26T00:53:21.065Z,99.90
2023-03-26T00:55:53.134Z,99.90
2023-03-26T00:58:25.296Z,99.90
2023-03-26T01:00:57.878Z,99.90
2023-03-26T01:03:33.917Z,99.90
2023-03-26T01:06:14.359Z,99.90
2023-03-26T01:08:48.283Z,99.90
2023-03-26T01:11:22.241Z,99.90
2023-03-26T01:14:07.266Z,99.90
2023-03-26T01:16:45.232Z,99.90
2023-03-26T01:19:17.058Z,99.90
2023-03-26T01:21:48.907Z,99.90
2023-03-26T01:24:23.221Z,99.90
2023-03-26T01:27:01.640Z,99.90
2023-03-26T01:29:37.690Z,99.90
2023-03-26T01:32:15.671Z,99.90
2023-03-26T01:34:57.497Z,99.90
2023-03-26T01:37:34.341Z,99.90
2023-03-26T01:40:12.002Z,99.90
2023-03-26T01:42:47.770Z,99.90
2023-03-26T01:45:22.830Z,99.90
2023-03-26T01:47:55.026Z,99.90
2023-03-26T01:50:26.894Z,99.90
2023-03-26T01:52:58.679Z,99.90
2023-03-26T01:55:54.032Z,99.90
2023-03-26T01:58:30.116Z,99.90
2023-03-26T02:01:02.220Z,99.90
2023-03-26T02:03:41.361Z,99.90
2023-03-26T02:06:30.830Z,99.90
2023-03-26T02:09:05.171Z,99.90
2023-03-26T02:11:38.596Z,99.90
2023-03-26T02:14:10.990Z,99.90
2023-03-26T02:16:46.985Z,99.90
2023-03-26T02:19:21.913Z,99.90
2023-03-26T02:21:59.831Z,99.90
2023-03-26T02:24:34.035Z,99.90
2023-03-26T02:27:08.028Z,99.90
2023-03-26T02:29:40.667Z,99.90
2023-03-26T02:32:13.422Z,99.90
2023-03-26T02:34:45.230Z,99.90
2023-03-26T02:37:19.099Z,99.90
2023-03-26T02:39:50.905Z,99.90
2023-03-26T02:42:22.779Z,99.90
2023-03-26T02:44:54.640Z,99.90
2023-03-26T02:47:26.462Z,99.90
2023-03-26T02:49:58.230Z,99.90
2023-03-26T02:52:30.608Z,99.90
2023-03-26T02:55:04.619Z,99.90
2023-03-26T02:57:36.453Z,99.90
2023-03-26T03:00:14.219Z,99.90
2023-03-26T03:02:48.279Z,99.90
2023-03-26T03:05:26.370Z,99.90
2023-03-26T03:08:01.096Z,99.90
2023-03-26T03:10:35.326Z,99.90
2023-03-26T03:13:07.929Z,99.90
2023-03-26T03:15:39.719Z,99.90
2023-03-26T03:18:11.511Z,99.90
2023-03-26T03:20:45.676Z,99.90
2023-03-26T03:23:20.008Z,99.90
2023-03-26T03:25:52.707Z,99.90
2023-03-26T03:28:25.135Z,99.90
2023-03-26T03:31:01.565Z,99.90
2023-03-26T03:33:33.469Z,99.90
2023-03-26T03:36:19.767Z,99.90
2023-03-26T03:38:52.860Z,99.90
2023-03-26T03:41:26.702Z,99.90
2023-03-26T03:43:59.915Z,99.90
2023-03-26T03:46:34.220Z,99.90
2023-03-26T03:49:06.172Z,99.90
2023-03-26T03:51:37.940Z,99.90
2023-03-26T03:54:10.081Z,99.90
2023-03-26T03:56:41.896Z,99.90
2023-03-26T03:59:16.042Z,99.90
2023-03-26T04:01:50.910Z,99.90
2023-03-26T04:04:24.749Z,99.90
2023-03-26T04:06:56.552Z,99.90
2023-03-26T04:09:28.397Z,99.90
2023-03-26T04:12:00.294Z,99.90
2023-03-26T04:14:32.106Z,99.90
2023-03-26T04:17:05.978Z,99.90
2023-03-26T04:19:38.520Z,99.90
2023-03-26T04:22:11.990Z,99.90
2023-03-26T04:24:43.773Z,99.90
2023-03-26T04:27:17.839Z,99.90
2023-03-26T04:29:50.106Z,99.90
2023-03-26T04:32:34.182Z,99.90
2023-03-26T04:35:10.919Z,99.90
2023-03-26T04:37:44.416Z,99.90
2023-03-26T04:40:18.468Z,99.90
2023-03-26T04:42:50.208Z,99.90
2023-03-26T04:45:23.048Z,99.90
2023-03-26T04:47:58.268Z,99.90
2023-03-26T04:50:30.361Z,99.90
2023-03-26T04:53:02.498Z,99.90
2023-03-26T04:55:39.539Z,99.90
2023-03-26T04:58:14.092Z,99.90
2023-03-26T05:00:47.539Z,99.90
2023-03-26T05:03:21.085Z,99.90
2023-03-26T05:05:53.239Z,99.90
2023-03-26T05:08:28.970Z,99.90
2023-03-26T05:11:00.756Z,99.90
2023-03-26T05:13:32.528Z,99.90
2023-03-26T05:16:04.479Z,99.90
2023-03-26T05:18:36.247Z,99.90
2023-03-26T05:21:11.260Z,99.90
2023-03-26T05:23:45.486Z,99.90
2023-03-26T05:26:17.371Z,99.90
2023-03-26T05:28:49.255Z,99.90
2023-03-26T05:31:23.538Z,99.90
2023-03-26T05:33:55.465Z,99.90
2023-03-26T05:36:28.627Z,99.90
2023-03-26T05:39:00.462Z,99.90
2023-03-26T05:41:32.281Z,99.90
2023-03-26T05:44:04.085Z,99.90
2023-03-26T05:46:35.938Z,99.90
2023-03-26T05:49:07.750Z,99.90
2023-03-26T05:51:39.564Z,99.90
2023-03-26T05:54:12.234Z,99.90
2023-03-26T05:56:44.062Z,99.90
2023-03-26T05:59:18.311Z,99.90
2023-03-26T06:01:51.041Z,99.90
2023-03-26T06:04:22.858Z,99.90
2023-03-26T06:06:57.095Z,99.90
2023-03-26T06:09:29.564Z,99.90
2023-03-26T06:12:01.357Z,99.90
2023-03-26T06:14:33.153Z,99.90
2023-03-26T06:17:04.985Z,99.90
2023-03-26T06:19:37.139Z,99.90
2023-03-26T06:22:08.945Z,99.90
2023-03-26T06:24:40.675Z,99.90
2023-03-26T06:27:12.457Z,99.90
2023-03-26T06:29:44.230Z,99.90
2023-03-26T06:32:20.150Z,99.90
2023-03-26T06:34:52.481Z,99.90
2023-03-26T06:37:24.311Z,99.90
2023-03-26T06:39:56.234Z,99.90
2023-03-26T06:43:07.042Z,99.90
2023-03-26T06:45:19.892Z,99.90
2023-03-26T06:47:51.786Z,99.90
2023-03-26T06:50:23.663Z,99.90
2023-03-26T06:52:56.006Z,99.90
2023-03-26T06:55:31.419Z,99.90
2023-03-26T06:58:03.262Z,99.90
2023-03-26T07:00:37.414Z,99.90
2023-03-26T07:03:09.943Z,99.90
2023-03-26T07:05:41.744Z,99.90
2023-03-26T07:08:13.484Z,99.90
2023-03-26T07:10:45.271Z,99.90
2023-03-26T07:13:17.062Z,99.90
2023-03-26T07:15:51.670Z,99.90
2023-03-26T07:18:23.466Z,99.90
2023-03-26T07:20:55.488Z,99.90
2023-03-26T07:23:27.661Z,99.90
2023-03-26T07:26:01.929Z,99.90
2023-03-26T07:28:36.985Z,99.90
2023-03-26T07:31:08.752Z,99.90
2023-03-26T07:33:47.527Z,99.90
2023-03-26T07:36:29.359Z,99.90
2023-03-26T07:39:20.393Z,99.90
2023-03-26T07:42:10.900Z,99.90
2023-03-26T07:44:42.614Z,99.90
2023-03-26T07:47:26.063Z,99.90
2023-03-26T07:49:58.364Z,99.90
2023-03-26T07:52:30.320Z,99.90
2023-03-26T07:55:04.714Z,99.90
2023-03-26T07:57:36.569Z,99.90
2023-03-26T08:00:16.633Z,99.90
2023-03-26T08:02:51.550Z,99.90
2023-03-26T08:05:26.695Z,99.90
2023-03-26T08:08:07.696Z,99.90
2023-03-26T08:10:44.796Z,99.90
2023-03-26T08:13:29.232Z,99.90
2023-03-26T08:16:01.019Z,99.90
2023-03-26T08:18:39.166Z,99.90
2023-03-26T08:21:17.219Z,99.90
2023-03-26T08:24:01.105Z,99.90
2023-03-26T08:26:41.813Z,99.90
2023-03-26T08:29:20.300Z,99.90
2023-03-26T08:31:52.917Z,99.90
2023-03-26T08:34:24.669Z,99.90
2023-03-26T08:36:56.633Z,99.90
2023-03-26T08:39:28.473Z,99.90
2023-03-26T08:42:18.874Z,99.90
2023-03-26T08:45:11.373Z,99.90
2023-03-26T08:47:46.172Z,99.90
2023-03-26T08:50:33.643Z,99.90
2023-03-26T08:53:05.611Z,99.90
2023-03-26T08:55:39.526Z,99.90
2023-03-26T08:58:33.311Z,99.90
2023-03-26T09:01:26.510Z,99.90
2023-03-26T09:03:58.296Z,99.90
2023-03-26T09:06:33.179Z,99.90
2023-03-26T09:09:33.149Z,99.90
2023-03-26T09:12:14.207Z,99.90
2023-03-26T09:15:04.499Z,99.90
2023-03-26T09:17:38.384Z,99.90
2023-03-26T09:20:26.564Z,99.90
2023-03-26T09:23:24.993Z,99.90
2023-03-26T09:26:11.739Z,99.90
2023-03-26T09:28:50.410Z,99.90
2023-03-26T09:31:28.178Z,99.90
2023-03-26T09:34:32.476Z,99.90
2023-03-26T09:37:09.443Z,99.90
2023-03-26T09:40:10.216Z,99.90
2023-03-26T09:42:42.046Z,99.90
2023-03-26T09:45:13.789Z,99.90
2023-03-26T09:47:51.515Z,99.90
2023-03-26T09:50:35.114Z,99.90
2023-03-26T09:53:12.348Z,99.90
2023-03-26T09:55:46.522Z,99.90
2023-03-26T09:58:40.816Z,99.90
2023-03-26T10:01:27.656Z,99.90
2023-03-26T10:04:17.609Z,99.90
2023-03-26T10:06:55.567Z,99.90
2023-03-26T10:09:30.118Z,99.90
2023-03-26T10:12:04.932Z,99.90
2023-03-26T10:14:48.655Z,99.90
2023-03-26T10:17:20.446Z,99.90
2023-03-26T10:19:58.003Z,99.90
2023-03-26T10:22:41.122Z,99.90
2023-03-26T10:25:25.180Z,99.90
2023-03-26T10:28:02.672Z,99.90
2023-03-26T10:30:39.441Z,99.90
2023-03-26T10:33:20.238Z,99.90
2023-03-26T10:36:10.714Z,99.90
2023-03-26T10:38:42.458Z,99.90
2023-03-26T10:41:21.604Z,99.90
2023-03-26T10:44:08.429Z,99.90
2023-03-26T10:46:55.730Z,99.90
2023-03-26T10:49:53.641Z,99.90
2023-03-26T10:52:29.572Z,99.90
2023-03-26T10:55:12.081Z,99.90
2023-03-26T10:57:56.265Z,99.90
2023-03-26T11:00:30.141Z,99.90
2023-03-26T11:03:01.943Z,99.90
2023-03-26T11:05:39.696Z,99.90
2023-03-26T11:08:31.554Z,99.90
2023-03-26T11:11:16.126Z,99.90
2023-03-26T11:13:51.031Z,99.90
2023-03-26T11:16:25.135Z,99.90
2023-03-26T11:19:05.113Z,99.90
2023-03-26T11:21:42.984Z,99.90
2023-03-26T11:24:36.044Z,99.90
2023-03-26T11:27:15.439Z,99.90
2023-03-26T11:29:48.357Z,99.90
2023-03-26T11:32:27.425Z,99.90
2023-03-26T11:34:59.243Z,99.90
2023-03-26T11:37:34.220Z,99.90
2023-03-26T11:40:11.627Z,99.90
2023-03-26T11:42:43.665Z,99.90
2023-03-26T11:45:24.275Z,99.90
2023-03-26T11:48:09.254Z,99.90
2023-03-26T11:50:51.811Z,99.90
2023-03-26T11:53:29.099Z,99.90
2023-03-26T11:56:04.276Z,99.90
2023-03-26T11:58:39.119Z,99.90
2023-03-26T12:01:18.917Z,99.90
2023-03-26T12:04:13.362Z,99.90
2023-03-26T12:06:56.653Z,99.90
2023-03-26T12:09:31.016Z,99.90
2023-03-26T12:12:06.168Z,99.90
2023-03-26T12:14:42.498Z,99.90
2023-03-26T12:17:31.541Z,99.90
2023-03-26T12:20:24.927Z,99.90
2023-03-26T12:23:00.485Z,99.90
2023-03-26T12:25:32.241Z,99.90
2023-03-26T12:28:24.848Z,99.90
2023-03-26T12:30:59.640Z,99.90
2023-03-26T12:33:35.130Z,99.90
2023-03-26T12:36:18.659Z,99.90
2023-03-26T12:39:16.890Z,99.90
2023-03-26T12:44:43.804Z,99.90
2023-03-26T12:44:59.664Z,99.90
2023-03-26T12:47:59.262Z,99.90
2023-03-26T12:50:34.077Z,99.90
2023-03-26T12:53:26.532Z,99.90
2023-03-26T12:55:58.468Z,99.90
2023-03-26T12:58:38.195Z,99.90
2023-03-26T13:01:28.383Z,99.90
2023-03-26T13:04:00.536Z,99.90
2023-03-26T13:07:01.563Z,99.90
2023-03-26T13:09:39.644Z,99.90
2023-03-26T13:12:11.403Z,99.90
2023-03-26T13:14:49.454Z,99.90
2023-03-26T13:17:38.998Z,99.90
2023-03-26T13:20:16.035Z,99.90
2023-03-26T13:22:50.997Z,99.90
2023-03-26T13:25:22.813Z,99.90
2023-03-26T13:28:03.711Z,99.90
2023-03-26T13:30:44.860Z,99.90
2023-03-26T13:33:21.006Z,99.90
2023-03-26T13:36:13.719Z,99.90
2023-03-26T13:39:09.586Z,99.90
2023-03-26T13:41:44.317Z,99.90
2023-03-26T13:44:20.924Z,99.90
2023-03-26T13:46:55.280Z,99.90
2023-03-26T13:49:37.667Z,99.90
2023-03-26T13:52:12.507Z,99.90
2023-03-26T13:54:44.745Z,99.90
2023-03-26T13:57:21.753Z,99.90
2023-03-26T13:59:58.404Z,99.90
2023-03-26T14:02:32.977Z,99.90
2023-03-26T14:05:12.402Z,99.90
2023-03-26T14:07:52.503Z,99.90
2023-03-26T14:10:35.422Z,99.90
2023-03-26T14:13:10.376Z,99.90
2023-03-26T14:15:46.334Z,83.00
2023-03-26T14:18:30.385Z,58.50
2023-03-26T14:21:14.336Z,99.90
2023-03-26T14:23:58.462Z,99.90
2023-03-26T14:26:37.297Z,33.90
2023-03-26T14:29:11.452Z,17.70
2023-03-26T14:31:58.304Z,23.50
2023-03-26T14:34:39.643Z,21.80
2023-03-26T14:37:14.394Z,7.00
2023-03-26T14:39:55.528Z,14.60
2023-03-26T14:42:45.936Z,16.10
2023-03-26T14:45:35.142Z,39.60
2023-03-26T14:48:28.974Z,41.50
2023-03-26T14:51:00.784Z,36.80
2023-03-26T14:53:42.278Z,33.10
2023-03-26T14:56:32.810Z,27.00
2023-03-26T14:59:16.980Z,57.90
2023-03-26T15:02:06.335Z,89.70
2023-03-26T15:04:47.656Z,92.10
2023-03-26T15:07:25.925Z,36.80
2023-03-26T15:10:00.907Z,23.10
2023-03-26T15:12:33.381Z,13.70
2023-03-26T15:15:05.115Z,20.80
2023-03-26T15:17:36.913Z,29.40
2023-03-26T15:20:31.958Z,13.20
2023-03-26T15:23:03.760Z,11.80
2023-03-26T15:25:38.705Z,3.10
2023-03-26T15:28:16.557Z,1.00
2023-03-26T15:30:51.334Z,1.00
2023-03-26T15:33:29.212Z,1.00
2023-03-26T15:36:19.262Z,7.30
2023-03-26T15:39:14.965Z,21.80
2023-03-26T15:41:47.014Z,18.20
2023-03-26T15:44:23.876Z,62.70
2023-03-26T15:47:01.803Z,73.20
2023-03-26T15:49:50.979Z,57.70
2023-03-26T15:52:44.052Z,58.70
2023-03-26T15:55:15.777Z,92.00
2023-03-26T15:58:02.796Z,86.10
2023-03-26T16:00:41.997Z,99.90
2023-03-26T16:03:23.225Z,99.90
2023-03-26T16:06:07.289Z,99.90
2023-03-26T16:08:47.197Z,99.90
2023-03-26T16:11:38.034Z,99.90
2023-03-26T16:14:23.348Z,99.90
2023-03-26T16:16:57.502Z,99.90
2023-03-26T16:19:32.560Z,99.90
2023-03-26T16:22:06.115Z,99.90
2023-03-26T16:24:42.726Z,99.90
2023-03-26T16:27:15.258Z,99.90
2023-03-26T16:30:13.560Z,99.90
2023-03-26T16:32:48.240Z,99.90
2023-03-26T16:35:19.989Z,99.90
2023-03-26T16:38:05.857Z,99.90
2023-03-26T16:40:50.413Z,99.90
2023-03-26T16:43:39.107Z,99.90
2023-03-26T16:46:29.532Z,99.90
2023-03-26T16:49:01.328Z,99.90
2023-03-26T16:51:39.089Z,99.90
2023-03-26T16:54:20.033Z,99.90
2023-03-26T16:57:13.005Z,99.90
2023-03-26T17:00:06.435Z,94.50
2023-03-26T17:02:41.809Z,91.00
2023-03-26T17:05:18.081Z,67.10
2023-03-26T17:07:55.680Z,52.20
2023-03-26T17:10:35.841Z,38.60
2023-03-26T17:13:23.402Z,50.60
2023-03-26T17:15:55.293Z,51.30
2023-03-26T17:18:30.017Z,29.10
2023-03-26T17:21:15.436Z,36.10
2023-03-26T17:24:05.554Z,70.10
2023-03-26T17:26:44.338Z,86.60
2023-03-26T17:29:34.159Z,81.80
2023-03-26T17:32:09.308Z,99.90
2023-03-26T17:34:50.515Z,99.90
2023-03-26T17:37:22.316Z,99.90
2023-03-26T17:40:00.439Z,93.30
2023-03-26T17:42:33.200Z,90.30
2023-03-26T17:45:11.709Z,99.90
2023-03-26T17:48:05.252Z,99.90
2023-03-26T17:50:57.727Z,99.90
2023-03-26T17:53:36.711Z,99.90
2023-03-26T17:56:16.303Z,99.90
2023-03-26T17:58:53.167Z,99.90
2023-03-26T18:01:24.902Z,99.90
2023-03-26T18:04:00.127Z,99.90
2023-03-26T18:06:47.117Z,99.90
2023-03-26T18:09:37.339Z,99.90
2023-03-26T18:12:15.246Z,99.90
2023-03-26T18:14:57.861Z,99.90
2023-03-26T18:17:31.870Z,99.90
2023-03-26T18:20:09.973Z,99.90
2023-03-26T18:22:44.490Z,99.90
2023-03-26T18:25:27.360Z,99.90
2023-03-26T18:28:00.918Z,99.90
2023-03-26T18:30:32.776Z,99.90
2023-03-26T18:33:12.334Z,99.90
2023-03-26T18:35:46.293Z,99.90
2023-03-26T18:38:35.650Z,99.90
2023-03-26T18:41:17.031Z,99.90
2023-03-26T18:43:48.826Z,99.90
2023-03-26T18:46:23.684Z,99.90
2023-03-26T18:49:00.020Z,99.90
2023-03-26T18:51:32.075Z,99.90
2023-03-26T18:54:05.366Z,99.90
2023-03-26T18:56:38.859Z,99.90
2023-03-26T18:59:27.918Z,99.90
2023-03-26T19:02:04.307Z,99.90
2023-03-26T19:04:37.317Z,99.90
2023-03-26T19:07:13.728Z,99.90
2023-03-26T19:09:45.604Z,99.90
2023-03-26T19:12:25.614Z,99.90
2023-03-26T19:15:07.978Z,99.90
2023-03-26T19:17:41.420Z,99.90
2023-03-26T19:20:16.446Z,99.90
2023-03-26T19:22:48.580Z,99.90
2023-03-26T19:25:24.541Z,99.90
2023-03-26T19:27:56.417Z,99.90
2023-03-26T19:30:34.433Z,99.90
2023-03-26T19:33:13.894Z,99.90
2023-03-26T19:35:51.678Z,99.90
2023-03-26T19:38:27.689Z,99.90
2023-03-26T19:40:59.650Z,99.90
2023-03-26T19:43:31.846Z,99.90
2023-03-26T19:46:03.680Z,99.90
2023-03-26T19:48:45.929Z,99.90
2023-03-26T19:51:21.060Z,99.90
2023-03-26T19:53:54.344Z,99.90
2023-03-26T19:56:26.793Z,99.90
2023-03-26T19:58:59.308Z,99.90
2023-03-26T20:01:33.654Z,99.90
2023-03-26T20:04:06.397Z,99.90
2023-03-26T20:06:43.649Z,99.90
2023-03-26T20:09:16.725Z,99.90
2023-03-26T20:11:52.616Z,99.90
2023-03-26T20:14:26.542Z,99.90
2023-03-26T20:16:58.677Z,99.90
2023-03-26T20:19:30.705Z,99.90
2023-03-26T20:22:02.646Z,99.90
2023-03-26T20:24:34.928Z,99.90
2023-03-26T20:27:06.907Z,99.90
2023-03-26T20:29:38.756Z,99.90
2023-03-26T20:32:26.436Z,99.90
2023-03-26T20:34:58.885Z,99.90
2023-03-26T20:37:33.226Z,99.90
2023-03-26T20:40:07.099Z,99.90
2023-03-26T20:42:39.025Z,99.90
2023-03-26T20:45:23.906Z,99.90
2023-03-26T20:47:55.895Z,99.90
2023-03-26T20:50:31.629Z,99.90
2023-03-26T20:53:03.596Z,99.90
2023-03-26T20:55:35.814Z,99.90
2023-03-26T20:58:09.563Z,99.90
2023-03-26T21:00:42.843Z,99.90
2023-03-26T21:03:17.978Z,99.90
2023-03-26T21:05:51.358Z,99.90
2023-03-26T21:08:30.157Z,99.90
2023-03-26T21:11:02.853Z,99.90
2023-03-26T21:13:39.759Z,99.90
2023-03-26T21:16:12.207Z,99.90
2023-03-26T21:18:44.166Z,99.90
2023-03-26T21:21:28.149Z,99.90
2023-03-26T21:24:17.171Z,99.90
2023-03-26T21:26:52.231Z,99.90
2023-03-26T21:29:24.266Z,99.90
2023-03-26T21:31:58.856Z,99.90
2023-03-26T21:34:32.977Z,99.90
2023-03-26T21:37:04.992Z,99.90
2023-03-26T21:39:36.979Z,99.90
2023-03-26T21:42:08.962Z,99.90
2023-03-26T21:44:41.270Z,99.90
2023-03-26T21:47:13.366Z,99.90
2023-03-26T21:49:45.298Z,99.90
2023-03-26T21:52:17.297Z,99.90
2023-03-26T21:54:49.222Z,99.90
2023-03-26T21:57:26.793Z,99.90
2023-03-26T22:00:15.283Z,99.90
2023-03-26T22:03:05.525Z,99.90
2023-03-26T22:05:54.695Z,99.90
2023-03-26T22:08:29.255Z,99.90
2023-03-26T22:11:01.496Z,99.90
2023-03-26T22:13:35.508Z,99.90
2023-03-26T22:16:08.455Z,99.90
2023-03-26T22:18:43.722Z,99.90
2023-03-26T22:21:15.460Z,99.90
2023-03-26T22:23:52.771Z,99.90
2023-03-26T22:26:27.160Z,99.90
2023-03-26T22:28:58.923Z,99.90
2023-03-26T22:31:30.897Z,99.90
2023-03-26T22:34:04.818Z,99.90
2023-03-26T22:36:38.944Z,99.90
2023-03-26T22:39:12.336Z,99.90
2023-03-26T22:41:44.102Z,99.90
2023-03-26T22:44:20.361Z,99.90
2023-03-26T22:46:52.503Z,99.90
2023-03-26T22:49:30.242Z,99.90
2023-03-26T22:52:02.107Z,99.90
2023-03-26T22:54:34.073Z,99.90
2023-03-26T22:57:05.884Z,99.90
2023-03-26T22:59:37.716Z,99.90
2023-03-26T23:02:11.005Z,99.90
2023-03-26T23:04:43.275Z,99.90
2023-03-26T23:07:17.524Z,99.90
2023-03-26T23:09:53.155Z,99.90
2023-03-26T23:12:27.241Z,99.90
2023-03-26T23:14:59.120Z,99.90
2023-03-26T23:17:35.563Z,99.90
2023-03-26T23:20:13.800Z,99.90
2023-03-26T23:22:45.817Z,99.90
2023-03-26T23:25:17.730Z,99.90
2023-03-26T23:27:50.683Z,99.90
2023-03-26T23:30:22.834Z,99.90
2023-03-26T23:32:57.185Z,99.90
2023-03-26T23:35:29.481Z,99.90
2023-03-26T23:38:02.283Z,99.90
2023-03-26T23:40:36.608Z,99.90
2023-03-26T23:43:08.402Z,99.90
2023-03-26T23:45:40.706Z,99.90
2023-03-26T23:48:13.615Z,99.90
2023-03-26T23:50:50.086Z,99.90
2023-03-26T23:53:23.753Z,99.90
2023-03-26T23:55:58.062Z,99.90
2023-03-26T23:58:32.661Z,99.90
